LFBL/LIG METAR and TAF weather

Enter ICAO airport designator
Station Type Date Time Source
LFBL METAR 2019/09/21 05:00 UTC NOAA

LFBL 210500Z AUTO 13006KT CAVOK 17/13 Q1014 NOSIG


Station Type Date Time Source
LFBL Decoded METAR 2019/09/21 05:00 UTC NOAA

Limoges, France (LFBL) 45-52N 001-11E 402M
Sep 21, 2019 - 01:00 AM EDT / 2019.09.21 0500 UTC
Wind: from the SE (130 degrees) at 7 MPH (6 KT):0
Visibility: greater than 7 mile(s):0
Temperature: 62 F (17 C)
Dew Point: 55 F (13 C)
Relative Humidity: 77%
Pressure (altimeter): 29.94 in. Hg (1014 hPa)
ob: LFBL 210500Z AUTO 13006KT CAVOK 17/13 Q1014 NOSIG
cycle: 5

Station Type Date Time Source
LFBL TAF 2019/09/21 06:21 UTC NOAA

TAF TAF LFBL 210500Z 2106/2206 14008KT CAVOK
TEMPO 2111/2121 16015G25KT BKN040
BECMG 2203/2205 BKN008

Example: see airport list